createdAt,value
2023-05-05T00:00:01.077Z,9.8
2023-05-05T00:03:01.104Z,9.8
2023-05-05T00:06:01.092Z,9.8
2023-05-05T00:09:00.960Z,9.8
2023-05-05T00:12:00.964Z,9.8
2023-05-05T00:15:00.957Z,9.5
2023-05-05T00:18:01.117Z,9.5
2023-05-05T00:21:01.011Z,9.5
2023-05-05T00:24:00.915Z,9.5
2023-05-05T00:27:00.999Z,9.5
2023-05-05T00:30:00.982Z,9.5
2023-05-05T00:33:00.996Z,9.5
2023-05-05T00:36:01.014Z,9.5
2023-05-05T00:39:00.942Z,9.5
2023-05-05T00:42:01.008Z,9.5
2023-05-05T00:45:00.959Z,9.5
2023-05-05T00:48:01.295Z,9.1
2023-05-05T00:51:00.934Z,9.1
2023-05-05T00:54:00.939Z,9.1
2023-05-05T00:57:00.955Z,9.1
2023-05-05T01:00:01.109Z,9.1
2023-05-05T01:03:01.106Z,9.1
2023-05-05T01:06:00.975Z,9.1
2023-05-05T01:09:01.006Z,9.1
2023-05-05T01:12:00.952Z,9.1
2023-05-05T01:15:00.937Z,9.1
2023-05-05T01:18:00.995Z,9.1
2023-05-05T01:21:00.923Z,8.6
2023-05-05T01:24:00.984Z,8.6
2023-05-05T01:27:00.982Z,8.6
2023-05-05T01:30:01.024Z,8.6
2023-05-05T01:33:01.012Z,8.6
2023-05-05T01:36:00.940Z,8.6
2023-05-05T01:39:01.015Z,8.6
2023-05-05T01:42:01.046Z,8.6
2023-05-05T01:45:01.091Z,8.6
2023-05-05T01:48:01.144Z,8.6
2023-05-05T01:51:00.976Z,8.6
2023-05-05T01:54:01.009Z,8.6
2023-05-05T01:57:00.882Z,8.6
2023-05-05T02:00:01.128Z,8.6
2023-05-05T02:03:01.235Z,8.6
2023-05-05T02:06:00.984Z,8.6
2023-05-05T02:09:00.957Z,8.6
2023-05-05T02:12:00.989Z,8.6
2023-05-05T02:15:01.121Z,8.6
2023-05-05T02:18:01.254Z,8.6
2023-05-05T02:21:01.009Z,8.6
2023-05-05T02:24:01.049Z,8.6
2023-05-05T02:27:00.959Z,8.6
2023-05-05T02:30:01.033Z,8.6
2023-05-05T02:33:01.072Z,8.6
2023-05-05T02:36:01.006Z,8.6
2023-05-05T02:39:00.957Z,8.6
2023-05-05T02:42:01.005Z,8.6
2023-05-05T02:45:00.992Z,8.6
2023-05-05T02:48:01.031Z,8.6
2023-05-05T02:51:00.994Z,8.6
2023-05-05T02:54:01.019Z,8.6
2023-05-05T02:57:01.003Z,8.6
2023-05-05T03:00:01.096Z,8.6
2023-05-05T03:03:01.255Z,8.6
2023-05-05T03:06:00.987Z,8.6
2023-05-05T03:09:01.105Z,8.6
2023-05-05T03:12:00.963Z,8.6
2023-05-05T03:15:01.003Z,8.6
2023-05-05T03:18:01.048Z,8.6
2023-05-05T03:21:00.935Z,8.6
2023-05-05T03:24:00.933Z,8.6
2023-05-05T03:27:00.890Z,8.6
2023-05-05T03:30:01.008Z,8.6
2023-05-05T03:33:01.058Z,8.6
2023-05-05T03:36:00.935Z,8.6
2023-05-05T03:39:00.921Z,8.6
2023-05-05T03:42:01.023Z,8.6
2023-05-05T03:45:00.994Z,8.6
2023-05-05T03:48:01.060Z,8.6
2023-05-05T03:51:00.960Z,8.6
2023-05-05T03:54:00.956Z,8.6
2023-05-05T03:57:01.002Z,8.6
2023-05-05T04:00:01.265Z,8.6
2023-05-05T04:03:01.182Z,8.6
2023-05-05T04:06:00.984Z,8.6
2023-05-05T04:09:00.945Z,8.6
2023-05-05T04:12:00.904Z,8.6
2023-05-05T04:15:01.035Z,8.6
2023-05-05T04:18:00.965Z,8.6
2023-05-05T04:21:01.110Z,8.6
2023-05-05T04:24:00.970Z,8.4
2023-05-05T04:27:00.971Z,8.4
2023-05-05T04:30:01.206Z,8.4
2023-05-05T04:33:01.055Z,8.4
2023-05-05T04:36:01.024Z,8.4
2023-05-05T04:39:01.140Z,8.4
2023-05-05T04:42:00.991Z,8.4
2023-05-05T04:45:01.181Z,8.4
2023-05-05T04:48:01.031Z,8.4
2023-05-05T04:51:00.995Z,8.4
2023-05-05T04:54:00.932Z,8.4
2023-05-05T04:57:01.095Z,8.4
2023-05-05T05:00:01.001Z,8.4
2023-05-05T05:03:01.130Z,8.4
2023-05-05T05:06:00.995Z,8.4
2023-05-05T05:09:01.006Z,8.4
2023-05-05T05:12:02.271Z,8.4
2023-05-05T05:15:00.995Z,8.7
2023-05-05T05:18:01.029Z,8.7
2023-05-05T05:21:01.189Z,8.7
2023-05-05T05:24:00.987Z,8.7
2023-05-05T05:27:01.008Z,8.7
2023-05-05T05:30:01.497Z,8.7
2023-05-05T05:33:01.087Z,8.7
2023-05-05T05:36:00.977Z,8.7
2023-05-05T05:39:00.955Z,8.7
2023-05-05T05:42:01.006Z,8.7
2023-05-05T05:45:00.897Z,9.2
2023-05-05T05:48:01.070Z,9.2
2023-05-05T05:51:00.948Z,9.2
2023-05-05T05:54:01.023Z,9.2
2023-05-05T05:57:00.951Z,9.7
2023-05-05T06:00:02.501Z,9.7
2023-05-05T06:03:01.137Z,9.7
2023-05-05T06:06:00.985Z,10.2
2023-05-05T06:09:00.957Z,10.2
2023-05-05T06:12:01.012Z,10.2
2023-05-05T06:15:00.983Z,10.7
2023-05-05T06:18:00.989Z,10.7
2023-05-05T06:21:01.206Z,10.7
2023-05-05T06:24:00.994Z,10.7
2023-05-05T06:27:00.992Z,11.2
2023-05-05T06:30:00.998Z,11.2
2023-05-05T06:33:01.063Z,11.2
2023-05-05T06:36:02.315Z,11.2
2023-05-05T06:39:01.162Z,11.7
2023-05-05T06:42:01.059Z,11.7
2023-05-05T06:45:00.928Z,11.7
2023-05-05T06:48:00.993Z,12.2
2023-05-05T06:51:00.991Z,12.2
2023-05-05T06:54:00.993Z,12.2
2023-05-05T06:57:01.063Z,12.2
2023-05-05T07:00:01.879Z,12.8
2023-05-05T07:03:01.020Z,12.8
2023-05-05T07:06:00.982Z,12.8
2023-05-05T07:09:01.019Z,12.8
2023-05-05T07:12:00.961Z,13.3
2023-05-05T07:15:19.377Z,13.3
2023-05-05T07:18:02.469Z,13.3
2023-05-05T07:21:01.032Z,13.3
2023-05-05T07:24:00.984Z,13.8
2023-05-05T07:27:00.949Z,13.8
2023-05-05T07:30:01.003Z,13.8
2023-05-05T07:33:01.215Z,14.3
2023-05-05T07:36:00.955Z,14.3
2023-05-05T07:39:00.995Z,14.3
2023-05-05T07:42:00.976Z,14.3
2023-05-05T07:45:01.009Z,14.3
2023-05-05T07:48:01.032Z,14.3
2023-05-05T07:51:00.948Z,14.3
2023-05-05T07:54:00.965Z,14.3
2023-05-05T07:57:00.939Z,14.8
2023-05-05T08:00:02.447Z,14.8
2023-05-05T08:03:01.070Z,14.8
2023-05-05T08:06:00.976Z,14.8
2023-05-05T08:09:00.969Z,14.8
2023-05-05T08:12:01.006Z,15.1
2023-05-05T08:15:01.010Z,15.1
2023-05-05T08:18:01.060Z,15.3
2023-05-05T08:21:00.990Z,15.3
2023-05-05T08:24:01.121Z,15.3
2023-05-05T08:27:00.988Z,15.3
2023-05-05T08:30:01.048Z,15.3
2023-05-05T08:33:01.045Z,15.8
2023-05-05T08:36:01.066Z,15.8
2023-05-05T08:39:00.985Z,15.8
2023-05-05T08:42:02.265Z,15.8
2023-05-05T08:45:00.951Z,15.8
2023-05-05T08:48:01.045Z,15.8
2023-05-05T08:51:05.344Z,15.8
2023-05-05T08:54:00.977Z,15.8
2023-05-05T08:57:00.939Z,16.4
2023-05-05T09:00:01.160Z,16.4
2023-05-05T09:03:01.245Z,16.4
2023-05-05T09:06:01.038Z,16.4
2023-05-05T09:09:01.242Z,16.4
2023-05-05T09:12:01.082Z,16.4
2023-05-05T09:15:12.267Z,16.9
2023-05-05T09:18:00.999Z,16.9
2023-05-05T09:21:00.991Z,16.9
2023-05-05T09:24:09.037Z,16.9
2023-05-05T09:27:00.973Z,16.9
2023-05-05T09:30:01.021Z,17.4
2023-05-05T09:33:01.030Z,17.4
2023-05-05T09:36:01.014Z,17.4
2023-05-05T09:42:01.029Z,17.9
2023-05-05T09:45:00.933Z,17.9
2023-05-05T09:48:01.286Z,17.9
2023-05-05T09:51:00.960Z,17.9
2023-05-05T09:54:00.958Z,17.9
2023-05-05T09:57:00.930Z,18.4
2023-05-05T10:00:01.186Z,18.4
2023-05-05T10:03:01.014Z,18.4
2023-05-05T10:06:01.016Z,18.4
2023-05-05T10:09:01.032Z,18.4
2023-05-05T10:12:00.950Z,18.4
2023-05-05T10:15:00.904Z,18.4
2023-05-05T10:18:08.528Z,18.9
2023-05-05T10:21:00.965Z,18.9
2023-05-05T10:24:00.927Z,18.9
2023-05-05T10:27:00.943Z,18.9
2023-05-05T10:30:01.015Z,18.9
2023-05-05T10:33:29.952Z,18.9
2023-05-05T10:36:00.991Z,18.9
2023-05-05T10:39:01.033Z,18.9
2023-05-05T10:42:00.991Z,18.9
2023-05-05T10:45:01.072Z,18.9
2023-05-05T10:48:01.152Z,18.9
2023-05-05T10:51:00.905Z,18.9
2023-05-05T10:54:01.150Z,18.9
2023-05-05T10:57:00.944Z,18.9
2023-05-05T11:00:01.117Z,18.9
2023-05-05T11:03:01.134Z,18.9
2023-05-05T11:06:00.935Z,18.9
2023-05-05T11:09:01.065Z,18.9
2023-05-05T11:12:00.977Z,18.9
2023-05-05T11:15:00.941Z,18.9
2023-05-05T11:18:05.007Z,18.9
2023-05-05T11:21:01.030Z,18.9
2023-05-05T11:24:01.061Z,18.9
2023-05-05T11:27:00.965Z,18.9
2023-05-05T11:30:00.963Z,18.9
2023-05-05T11:33:01.049Z,18.9
2023-05-05T11:36:04.362Z,18.9
2023-05-05T11:39:01.001Z,18.6
2023-05-05T11:42:08.237Z,18.6
2023-05-05T11:45:00.967Z,18.6
2023-05-05T11:48:01.105Z,18.6
2023-05-05T11:51:00.976Z,18.6
2023-05-05T11:54:00.970Z,18.6
2023-05-05T11:57:01.006Z,18.6
2023-05-05T12:00:01.048Z,18.6
2023-05-05T12:03:01.225Z,18.6
2023-05-05T12:06:01.033Z,18.6
2023-05-05T12:09:00.956Z,18.6
2023-05-05T12:12:00.980Z,18.6
2023-05-05T12:15:00.966Z,18.5
2023-05-05T12:18:03.582Z,18.5
2023-05-05T12:21:01.110Z,18.5
2023-05-05T12:24:00.992Z,18.5
2023-05-05T12:30:00.925Z,18.4
2023-05-05T12:33:01.046Z,18.4
2023-05-05T12:36:00.975Z,18.4
2023-05-05T12:39:00.955Z,18.4
2023-05-05T12:42:00.918Z,18.4
2023-05-05T12:45:00.914Z,18.4
2023-05-05T12:48:01.047Z,18.4
2023-05-05T12:51:00.929Z,18.4
2023-05-05T12:54:00.946Z,18.4
2023-05-05T12:57:00.950Z,18.4
2023-05-05T13:00:01.155Z,18.4
2023-05-05T13:03:01.101Z,18.4
2023-05-05T13:06:00.981Z,18.4
2023-05-05T13:09:00.976Z,18.4
2023-05-05T13:12:00.975Z,18.4
2023-05-05T13:15:00.975Z,18.4
2023-05-05T13:18:01.373Z,18.4
2023-05-05T13:21:00.950Z,18.4
2023-05-05T13:24:25.781Z,18.8
2023-05-05T13:27:00.961Z,18.8
2023-05-05T13:30:01.042Z,18.8
2023-05-05T13:33:01.048Z,18.8
2023-05-05T13:36:00.971Z,18.8
2023-05-05T13:39:00.971Z,18.8
2023-05-05T13:42:01.050Z,18.8
2023-05-05T13:45:01.041Z,19.2
2023-05-05T13:48:01.176Z,19.2
2023-05-05T13:51:00.968Z,19.2
2023-05-05T13:54:00.998Z,19.2
2023-05-05T13:57:00.965Z,19.4
2023-05-05T14:00:01.121Z,19.4
2023-05-05T14:03:01.052Z,19.4
2023-05-05T14:06:01.031Z,19.4
2023-05-05T14:09:01.153Z,19.4
2023-05-05T14:12:00.984Z,19.4
2023-05-05T14:15:00.981Z,19.4
2023-05-05T14:18:01.030Z,19.7
2023-05-05T14:21:01.156Z,19.7
2023-05-05T14:24:00.998Z,19.7
2023-05-05T14:27:00.966Z,19.7
2023-05-05T14:30:01.037Z,19.7
2023-05-05T14:33:00.985Z,19.7
2023-05-05T14:36:00.989Z,19.7
2023-05-05T14:39:00.997Z,19.7
2023-05-05T14:42:00.966Z,19.7
2023-05-05T14:45:00.953Z,19.7
2023-05-05T14:48:01.051Z,19.7
2023-05-05T14:51:00.970Z,19.7
2023-05-05T14:54:00.999Z,19.7
2023-05-05T14:57:00.982Z,19.7
2023-05-05T15:00:01.112Z,19.7
2023-05-05T15:03:01.047Z,19.7
2023-05-05T15:06:00.968Z,19.7
2023-05-05T15:09:00.991Z,19.7
2023-05-05T15:12:00.993Z,19.7
2023-05-05T15:15:00.961Z,19.7
2023-05-05T15:18:01.112Z,19.7
2023-05-05T15:21:00.956Z,20.1
2023-05-05T15:24:00.992Z,20.1
2023-05-05T15:27:00.914Z,20.1
2023-05-05T15:30:01.083Z,20.1
2023-05-05T15:33:01.187Z,20.1
2023-05-05T15:36:00.949Z,20.1
2023-05-05T15:39:01.021Z,20.1
2023-05-05T15:42:00.956Z,20.1
2023-05-05T15:45:00.936Z,20.1
2023-05-05T15:48:00.988Z,20.1
2023-05-05T15:51:00.947Z,20.1
2023-05-05T15:54:00.979Z,20.1
2023-05-05T15:57:00.977Z,20.1
2023-05-05T16:00:01.165Z,20.1
2023-05-05T16:03:01.031Z,20.1
2023-05-05T16:06:00.976Z,20.1
2023-05-05T16:09:00.978Z,20.1
2023-05-05T16:12:00.928Z,20.1
2023-05-05T16:15:00.988Z,20.1
2023-05-05T16:18:01.209Z,20.1
2023-05-05T16:21:00.970Z,20.1
2023-05-05T16:24:00.938Z,20.1
2023-05-05T16:27:00.969Z,19.6
2023-05-05T16:30:01.135Z,19.6
2023-05-05T16:33:00.988Z,19.6
2023-05-05T16:36:00.954Z,19.6
2023-05-05T16:39:00.996Z,19.6
2023-05-05T16:42:01.031Z,19.6
2023-05-05T16:45:00.951Z,19.6
2023-05-05T16:48:01.157Z,19.6
2023-05-05T16:51:00.973Z,19.6
2023-05-05T16:54:00.969Z,19.1
2023-05-05T16:57:00.940Z,19.1
2023-05-05T17:00:01.053Z,19.1
2023-05-05T17:03:00.981Z,19.1
2023-05-05T17:06:01.044Z,19.1
2023-05-05T17:09:00.996Z,18.8
2023-05-05T17:12:00.909Z,18.8
2023-05-05T17:15:00.998Z,18.8
2023-05-05T17:18:01.059Z,18.8
2023-05-05T17:21:01.006Z,18.8
2023-05-05T17:24:01.005Z,18.4
2023-05-05T17:27:00.984Z,18.4
2023-05-05T17:30:01.150Z,18.4
2023-05-05T17:33:00.994Z,18.4
2023-05-05T17:36:00.922Z,17.9
2023-05-05T17:39:01.053Z,17.9
2023-05-05T17:42:01.004Z,17.6
2023-05-05T17:45:00.962Z,17.6
2023-05-05T17:48:01.030Z,17.6
2023-05-05T17:51:00.941Z,17.6
2023-05-05T17:54:01.043Z,17.6
2023-05-05T17:57:00.953Z,17.6
2023-05-05T18:00:01.109Z,17.6
2023-05-05T18:03:01.157Z,17.1
2023-05-05T18:06:00.938Z,17.1
2023-05-05T18:09:00.941Z,16.8
2023-05-05T18:12:00.972Z,16.8
2023-05-05T18:15:00.946Z,16.8
2023-05-05T18:18:00.996Z,16.2
2023-05-05T18:21:00.987Z,16.2
2023-05-05T18:24:19.008Z,16.2
2023-05-05T18:27:00.864Z,16.2
2023-05-05T18:30:01.082Z,16.2
2023-05-05T18:33:01.056Z,16.2
2023-05-05T18:36:01.042Z,16.2
2023-05-05T18:39:00.926Z,16.2
2023-05-05T18:42:01.040Z,15.7
2023-05-05T18:45:00.957Z,15.7
2023-05-05T18:48:01.025Z,15.7
2023-05-05T18:51:00.966Z,15.7
2023-05-05T18:54:01.144Z,15.7
2023-05-05T18:57:00.948Z,15.7
2023-05-05T19:00:01.036Z,15.7
2023-05-05T19:03:00.993Z,15.7
2023-05-05T19:06:01.013Z,15.7
2023-05-05T19:09:00.943Z,15.7
2023-05-05T19:12:01.033Z,15.7
2023-05-05T19:15:00.956Z,15.7
2023-05-05T19:18:01.116Z,15.7
2023-05-05T19:21:00.960Z,15.7
2023-05-05T19:24:01.193Z,15.7
2023-05-05T19:27:00.997Z,15.7
2023-05-05T19:30:00.985Z,15.7
2023-05-05T19:33:01.145Z,15.7
2023-05-05T19:36:00.944Z,15.7
2023-05-05T19:39:01.005Z,15.7
2023-05-05T19:42:00.970Z,15.3
2023-05-05T19:45:00.959Z,15.3
2023-05-05T19:48:01.169Z,15.3
2023-05-05T19:51:00.970Z,15.3
2023-05-05T19:54:01.021Z,15.3
2023-05-05T19:57:01.033Z,15.3
2023-05-05T20:00:01.099Z,15.3
2023-05-05T20:03:01.029Z,15.3
2023-05-05T20:06:00.995Z,15.3
2023-05-05T20:09:00.963Z,15.3
2023-05-05T20:12:01.010Z,15.3
2023-05-05T20:15:00.962Z,15.3
2023-05-05T20:18:01.069Z,15.3
2023-05-05T20:21:00.961Z,15.3
2023-05-05T20:24:01.228Z,15.3
2023-05-05T20:27:01.035Z,15.3
2023-05-05T20:30:01.027Z,15.3
2023-05-05T20:33:01.035Z,15.3
2023-05-05T20:36:01.015Z,14.9
2023-05-05T20:39:01.037Z,14.9
2023-05-05T20:42:01.091Z,14.9
2023-05-05T20:45:01.359Z,14.9
2023-05-05T20:48:01.065Z,14.9
2023-05-05T20:51:00.968Z,14.9
2023-05-05T20:54:01.121Z,14.9
2023-05-05T20:57:00.953Z,14.9
2023-05-05T21:00:01.170Z,14.9
2023-05-05T21:03:01.080Z,14.9
2023-05-05T21:06:00.997Z,14.9
2023-05-05T21:09:00.933Z,14.9
2023-05-05T21:12:01.049Z,14.9
2023-05-05T21:15:00.990Z,14.9
2023-05-05T21:18:01.014Z,14.9
2023-05-05T21:21:00.931Z,14.9
2023-05-05T21:24:01.010Z,14.9
2023-05-05T21:27:00.960Z,14.9
2023-05-05T21:30:01.016Z,14.9
2023-05-05T21:33:01.079Z,14.9
2023-05-05T21:36:00.947Z,14.9
2023-05-05T21:39:01.022Z,14.9
2023-05-05T21:42:01.109Z,14.9
2023-05-05T21:45:00.972Z,14.9
2023-05-05T21:48:01.071Z,14.9
2023-05-05T21:51:01.091Z,14.9
2023-05-05T21:54:01.117Z,14.9
2023-05-05T21:57:00.981Z,14.9
2023-05-05T22:00:01.273Z,14.5
2023-05-05T22:03:01.102Z,14.5
2023-05-05T22:06:01.078Z,14.5
2023-05-05T22:09:00.916Z,14.5
2023-05-05T22:12:01.009Z,14.5
2023-05-05T22:15:00.980Z,14.5
2023-05-05T22:18:01.211Z,14.5
2023-05-05T22:21:00.996Z,14.4
2023-05-05T22:24:00.946Z,14.4
2023-05-05T22:27:00.984Z,14.4
2023-05-05T22:30:01.144Z,14.4
2023-05-05T22:33:01.119Z,14.4
2023-05-05T22:36:00.953Z,14.4
2023-05-05T22:39:01.026Z,14.4
2023-05-05T22:42:00.989Z,14.4
2023-05-05T22:45:00.934Z,14.4
2023-05-05T22:48:01.068Z,14.4
2023-05-05T22:51:01.002Z,14.2
2023-05-05T22:54:01.041Z,14.2
2023-05-05T22:57:00.938Z,14.2
2023-05-05T23:00:01.084Z,14.2
2023-05-05T23:03:01.151Z,14.2
2023-05-05T23:06:00.982Z,14.2
2023-05-05T23:09:00.941Z,14.2
2023-05-05T23:12:01.079Z,14.1
2023-05-05T23:15:00.972Z,14.1
2023-05-05T23:18:01.157Z,14.1
2023-05-05T23:21:00.982Z,14.1
2023-05-05T23:24:01.034Z,14.1
2023-05-05T23:27:01.027Z,14.1
2023-05-05T23:30:01.065Z,14.1
2023-05-05T23:33:01.016Z,14.1
2023-05-05T23:36:01.049Z,14.1
2023-05-05T23:39:00.943Z,14.1
2023-05-05T23:42:01.022Z,14.1
2023-05-05T23:45:01.872Z,14.1
2023-05-05T23:48:01.119Z,14.1
2023-05-05T23:51:00.980Z,14.1
2023-05-05T23:54:01.057Z,13.8
2023-05-05T23:57:00.962Z,13.8
